Time;durP1;ratioP1;P1;durP2;ratioP2;P2;SDS_P1;SDS_P2;PMS_P1;PMS_P2;Temp;Humidity;BMP_temperature;BMP_pressure;BME280_temperature;BME280_humidity;BME280_pressure;Samples;Min_cycle;Max_cycle;Signal;HPM_P1;HPM_P2
2021/04/30 00:00:52;;;;;;;12.15;6.47;;;8.80;97.40;;;;;;4955341;29;20031;-74
2021/04/30 00:03:19;;;;;;;16.85;7.35;;;8.70;97.40;;;;;;4954575;28;20464;-74
2021/04/30 00:05:45;;;;;;;19.65;7.95;;;8.80;97.50;;;;;;4955456;28;20078;-74
2021/04/30 00:08:12;;;;;;;17.80;7.65;;;8.80;97.50;;;;;;4954866;28;20047;-74
2021/04/30 00:10:38;;;;;;;16.00;6.50;;;8.80;97.40;;;;;;4955727;28;20027;-75
2021/04/30 00:13:03;;;;;;;17.95;6.60;;;8.80;97.40;;;;;;4954749;28;20078;-74
2021/04/30 00:15:29;;;;;;;21.75;8.50;;;8.90;97.40;;;;;;4955444;28;20491;-75
2021/04/30 00:17:55;;;;;;;21.00;8.25;;;8.80;97.40;;;;;;4969410;28;20114;-74
2021/04/30 00:20:20;;;;;;;18.63;7.78;;;8.80;97.40;;;;;;4955667;29;20027;-74
2021/04/30 00:22:46;;;;;;;22.65;7.20;;;8.80;97.30;;;;;;4955620;28;20135;-75
2021/04/30 00:25:12;;;;;;;14.13;6.50;;;8.80;97.30;;;;;;4969940;28;20027;-76
2021/04/30 00:27:38;;;;;;;17.77;8.02;;;8.80;97.30;;;;;;4955569;28;20027;-75
2021/04/30 00:30:05;;;;;;;24.45;7.80;;;8.80;97.40;;;;;;4954514;28;20027;-74
2021/04/30 00:32:31;;;;;;;21.38;8.25;;;8.80;97.40;;;;;;4955183;28;20114;-75
2021/04/30 00:34:57;;;;;;;15.65;7.28;;;8.80;97.40;;;;;;4969111;28;20461;-75
2021/04/30 00:37:22;;;;;;;16.63;7.57;;;8.80;97.30;;;;;;4955293;29;20027;-75
2021/04/30 00:39:48;;;;;;;24.92;8.48;;;8.80;97.30;;;;;;4955076;29;20051;-74
2021/04/30 00:42:16;;;;;;;18.63;7.38;;;8.80;97.30;;;;;;4954272;29;20105;-75
2021/04/30 00:44:44;;;;;;;14.00;7.10;;;8.90;97.40;;;;;;4954968;28;20023;-75
2021/04/30 00:47:33;;;;;;;12.80;7.45;;;8.90;97.40;;;;;;4954322;28;20030;-74
2021/04/30 00:50:10;;;;;;;16.70;6.93;;;8.90;97.40;;;;;;4954236;28;20098;-75
2021/04/30 00:52:36;;;;;;;16.17;6.82;;;9.00;97.50;;;;;;4954933;28;20102;-75
2021/04/30 00:55:10;;;;;;;15.75;6.63;;;9.00;97.40;;;;;;4954076;28;20118;-74
2021/04/30 00:57:38;;;;;;;16.23;8.23;;;9.10;97.50;;;;;;4955000;28;20027;-74
2021/04/30 01:00:09;;;;;;;18.05;7.07;;;9.10;97.40;;;;;;4968919;28;20034;-74
2021/04/30 01:02:35;;;;;;;16.90;6.80;;;9.10;97.40;;;;;;4953503;29;20380;-74
2021/04/30 01:05:02;;;;;;;18.42;6.68;;;9.10;97.40;;;;;;4954186;28;20468;-74
2021/04/30 01:07:28;;;;;;;16.98;7.32;;;9.10;97.40;;;;;;4953147;28;20134;-73
2021/04/30 01:09:57;;;;;;;18.20;7.55;;;9.10;97.30;;;;;;4985536;28;20023;-73
2021/04/30 01:12:23;;;;;;;13.35;6.60;;;9.10;97.40;;;;;;4954404;28;20027;-73
2021/04/30 01:14:49;;;;;;;10.23;5.72;;;9.10;97.50;;;;;;4954418;29;20031;-74
2021/04/30 01:17:15;;;;;;;16.85;6.70;;;9.10;97.50;;;;;;4952614;29;20252;-73
2021/04/30 01:19:40;;;;;;;12.48;6.80;;;9.20;97.50;;;;;;4953273;28;20031;-74
2021/04/30 01:22:06;;;;;;;17.02;7.03;;;9.20;97.50;;;;;;4968212;28;20358;-75
2021/04/30 01:24:32;;;;;;;20.48;7.32;;;9.20;97.40;;;;;;4954097;29;20035;-75
2021/04/30 01:26:58;;;;;;;13.68;6.20;;;9.20;97.40;;;;;;4952963;28;20030;-73
2021/04/30 01:29:24;;;;;;;14.77;5.72;;;9.30;97.60;;;;;;4952210;29;20023;-73
2021/04/30 01:31:50;;;;;;;14.98;5.93;;;9.20;97.40;;;;;;4953180;28;20066;-74
2021/04/30 01:34:15;;;;;;;15.35;5.93;;;9.30;97.40;;;;;;4952910;29;20054;-73
2021/04/30 01:36:42;;;;;;;16.02;6.45;;;9.30;97.50;;;;;;4968387;28;20038;-73
2021/04/30 01:39:12;;;;;;;20.83;7.60;;;9.30;97.40;;;;;;4968584;28;20047;-74
2021/04/30 01:41:38;;;;;;;13.55;5.90;;;9.30;97.40;;;;;;4953614;28;20026;-73
2021/04/30 01:44:08;;;;;;;19.92;7.30;;;9.30;97.50;;;;;;4984571;28;20023;-73
2021/04/30 01:46:35;;;;;;;15.13;7.25;;;9.30;97.50;;;;;;4968798;28;20380;-75
2021/04/30 01:49:01;;;;;;;20.45;8.02;;;9.30;97.50;;;;;;4952095;28;20030;-75
2021/04/30 01:51:27;;;;;;;15.93;7.30;;;9.30;97.50;;;;;;4954024;28;20098;-74
2021/04/30 01:53:53;;;;;;;16.70;7.13;;;9.30;97.50;;;;;;4953884;28;20062;-74
2021/04/30 01:56:19;;;;;;;17.00;7.40;;;9.30;97.40;;;;;;4951961;28;20454;-77
2021/04/30 01:58:45;;;;;;;17.05;6.75;;;9.30;97.50;;;;;;4952575;28;20033;-74
2021/04/30 02:01:11;;;;;;;22.83;6.90;;;9.30;97.40;;;;;;4952001;28;20034;-74
2021/04/30 02:03:37;;;;;;;16.33;4.85;;;9.30;97.50;;;;;;4953915;28;20110;-74
2021/04/30 02:06:04;;;;;;;15.52;7.15;;;9.30;97.50;;;;;;4953293;28;20031;-73
2021/04/30 02:08:30;;;;;;;21.80;8.77;;;9.30;97.40;;;;;;4951984;29;20047;-75
2021/04/30 02:10:55;;;;;;;14.63;6.93;;;9.30;97.40;;;;;;4953799;28;20035;-74
2021/04/30 02:13:22;;;;;;;22.45;7.35;;;9.20;97.30;;;;;;4951880;29;20024;-74
2021/04/30 02:15:53;;;;;;;18.95;7.63;;;9.30;97.50;;;;;;4952375;28;20499;-74
2021/04/30 02:18:20;;;;;;;16.88;8.02;;;9.30;97.50;;;;;;4951964;29;20316;-74
2021/04/30 02:20:45;;;;;;;15.55;5.85;;;9.30;97.50;;;;;;4953751;28;20024;-74
2021/04/30 02:23:11;;;;;;;14.85;6.65;;;9.30;97.50;;;;;;4967789;28;20542;-74
2021/04/30 02:25:38;;;;;;;12.13;5.82;;;9.40;97.50;;;;;;4952428;29;20035;-75
2021/04/30 02:28:04;;;;;;;17.02;6.80;;;9.40;97.60;;;;;;4951697;29;20110;-74
2021/04/30 02:30:33;;;;;;;18.90;6.25;;;9.40;97.50;;;;;;4953266;28;20034;-74
2021/04/30 02:33:00;;;;;;;12.07;5.40;;;9.40;97.50;;;;;;4953586;28;20031;-75
2021/04/30 02:35:35;;;;;;;14.77;6.68;;;9.40;97.50;;;;;;4953251;28;20488;-74
2021/04/30 02:38:01;;;;;;;13.52;6.47;;;9.50;97.50;;;;;;4952124;28;20400;-75
2021/04/30 02:40:29;;;;;;;19.55;7.55;;;9.40;97.50;;;;;;4953463;28;20357;-74
2021/04/30 02:42:56;;;;;;;20.45;7.43;;;9.40;97.40;;;;;;4953469;28;20452;-74
2021/04/30 02:45:23;;;;;;;18.92;7.25;;;9.40;97.50;;;;;;4952950;28;20031;-76
2021/04/30 02:47:51;;;;;;;20.75;7.85;;;9.40;97.60;;;;;;4953215;28;20027;-76
2021/04/30 02:50:20;;;;;;;16.25;5.95;;;9.40;97.60;;;;;;4952476;28;20030;-76
2021/04/30 02:52:47;;;;;;;13.15;5.72;;;9.50;97.60;;;;;;4954654;28;20066;-76
2021/04/30 02:55:14;;;;;;;19.08;7.10;;;9.50;97.50;;;;;;4971117;28;20087;-76
2021/04/30 02:57:40;;;;;;;17.25;5.78;;;9.50;97.50;;;;;;4955463;28;20106;-76
2021/04/30 03:00:08;;;;;;;15.55;6.18;;;9.50;97.50;;;;;;4955520;28;20114;-75
2021/04/30 03:02:34;;;;;;;13.52;6.13;;;9.50;97.50;;;;;;4955945;28;20034;-76
2021/04/30 03:05:00;;;;;;;15.23;5.68;;;9.50;97.60;;;;;;4955035;28;20035;-76
2021/04/30 03:07:26;;;;;;;13.27;5.88;;;9.50;97.60;;;;;;4955398;28;20055;-76
2021/04/30 03:09:51;;;;;;;13.35;6.03;;;9.50;97.60;;;;;;4956558;29;20023;-76
2021/04/30 03:12:17;;;;;;;13.30;4.70;;;9.50;97.50;;;;;;4956083;28;20105;-77
2021/04/30 03:14:43;;;;;;;12.70;6.20;;;9.50;97.50;;;;;;4955231;29;20030;-76
2021/04/30 03:17:09;;;;;;;18.13;6.53;;;9.60;97.60;;;;;;4956030;29;20051;-76
2021/04/30 03:19:34;;;;;;;11.15;5.32;;;9.50;97.50;;;;;;4954422;28;20032;-80
2021/04/30 03:22:00;;;;;;;16.90;6.00;;;9.50;97.50;;;;;;4953320;29;20034;-79
2021/04/30 03:24:25;;;;;;;19.38;7.72;;;9.60;97.60;;;;;;4968563;28;20070;-80
2021/04/30 03:26:51;;;;;;;18.00;6.53;;;9.50;97.60;;;;;;4954497;29;20035;-74
2021/04/30 03:29:17;;;;;;;19.52;6.93;;;9.60;97.60;;;;;;4954524;28;20022;-78
2021/04/30 03:31:42;;;;;;;18.13;7.10;;;9.50;97.50;;;;;;4954888;29;20029;-80
2021/04/30 03:34:09;;;;;;;13.93;6.63;;;9.50;97.50;;;;;;4955238;28;20535;-79
2021/04/30 03:36:35;;;;;;;13.93;5.53;;;9.50;97.50;;;;;;4954736;28;20023;-74
2021/04/30 03:39:02;;;;;;;17.30;7.38;;;9.50;97.50;;;;;;4954953;29;20053;-75
2021/04/30 03:41:29;;;;;;;13.90;5.90;;;9.50;97.50;;;;;;4955195;28;20068;-76
2021/04/30 03:43:55;;;;;;;20.70;7.07;;;9.50;97.50;;;;;;4955411;28;20028;-75
2021/04/30 03:46:21;;;;;;;12.57;6.20;;;9.50;97.50;;;;;;4955191;28;20031;-74
2021/04/30 03:48:46;;;;;;;16.67;6.93;;;9.50;97.60;;;;;;4955976;29;20086;-75
2021/04/30 03:51:12;;;;;;;14.90;6.72;;;9.50;97.50;;;;;;4955444;29;20098;-74
2021/04/30 03:53:38;;;;;;;17.90;6.75;;;9.50;97.60;;;;;;4955950;29;20070;-74
2021/04/30 03:56:04;;;;;;;12.65;5.63;;;9.50;97.60;;;;;;4955655;28;20476;-75
2021/04/30 03:58:30;;;;;;;17.25;6.43;;;9.50;97.50;;;;;;4955253;28;20054;-75
2021/04/30 04:00:55;;;;;;;14.50;6.05;;;9.50;97.50;;;;;;4955598;28;20015;-74
2021/04/30 04:03:21;;;;;;;19.42;8.00;;;9.60;97.50;;;;;;4954688;28;20158;-74
2021/04/30 04:05:46;;;;;;;17.52;7.32;;;9.50;97.50;;;;;;4955437;28;20161;-74
2021/04/30 04:08:12;;;;;;;17.95;7.07;;;9.50;97.50;;;;;;4953548;28;20117;-75
2021/04/30 04:10:38;;;;;;;15.90;6.20;;;9.50;97.60;;;;;;4955581;29;20586;-74
2021/04/30 04:13:25;;;;;;;20.15;7.95;;;9.50;97.60;;;;;;4955765;29;20023;-75
2021/04/30 04:15:51;;;;;;;15.55;6.30;;;9.50;97.50;;;;;;4955475;28;20109;-77
2021/04/30 04:18:18;;;;;;;18.15;6.25;;;9.50;97.60;;;;;;4955049;29;20090;-76
2021/04/30 04:20:45;;;;;;;16.33;6.50;;;9.60;97.60;;;;;;4955711;28;20027;-75
2021/04/30 04:23:10;;;;;;;14.30;6.60;;;9.60;97.60;;;;;;4954772;28;20037;-74
2021/04/30 04:25:39;;;;;;;15.95;6.50;;;9.50;97.60;;;;;;4955556;29;20111;-74
2021/04/30 04:28:06;;;;;;;14.75;6.22;;;9.60;97.60;;;;;;4955047;29;20027;-75
2021/04/30 04:30:31;;;;;;;14.27;6.13;;;9.60;97.60;;;;;;4954649;28;20186;-75
2021/04/30 04:32:57;;;;;;;13.15;6.22;;;9.60;97.60;;;;;;4955506;28;20459;-74
2021/04/30 04:35:23;;;;;;;22.42;8.98;;;9.60;97.60;;;;;;4954250;29;20527;-74
2021/04/30 04:37:49;;;;;;;14.93;6.18;;;9.60;97.60;;;;;;4955051;29;20031;-74
2021/04/30 04:40:16;;;;;;;14.95;6.85;;;9.60;97.60;;;;;;4954575;29;20023;-74
2021/04/30 04:42:43;;;;;;;15.25;6.30;;;9.60;97.60;;;;;;4953824;29;20458;-76
2021/04/30 04:45:09;;;;;;;18.85;8.25;;;9.60;97.60;;;;;;4954603;28;20400;-75
2021/04/30 04:47:35;;;;;;;19.80;7.43;;;9.60;97.60;;;;;;4954048;29;20102;-74
2021/04/30 04:50:00;;;;;;;21.00;7.63;;;9.60;97.60;;;;;;4953507;29;20476;-74
2021/04/30 04:52:27;;;;;;;20.27;7.00;;;9.60;97.60;;;;;;4954342;29;20031;-74
2021/04/30 04:54:52;;;;;;;12.48;6.05;;;9.70;97.70;;;;;;4955230;28;20031;-74
2021/04/30 04:57:18;;;;;;;14.38;6.93;;;9.80;97.70;;;;;;4954878;28;20032;-74
2021/04/30 04:59:44;;;;;;;21.75;7.47;;;9.70;97.60;;;;;;4955325;29;20375;-75
2021/04/30 05:02:09;;;;;;;18.52;7.13;;;9.70;97.60;;;;;;4954060;29;20086;-74
2021/04/30 05:04:35;;;;;;;15.13;6.88;;;9.70;97.60;;;;;;4953124;29;20401;-75
2021/04/30 05:07:00;;;;;;;18.67;7.68;;;9.80;97.70;;;;;;4970293;28;20110;-74
2021/04/30 05:09:27;;;;;;;21.42;8.60;;;9.80;97.70;;;;;;4954093;29;20527;-74
2021/04/30 05:11:54;;;;;;;22.45;9.20;;;9.80;97.60;;;;;;4954214;28;20519;-74
2021/04/30 05:14:20;;;;;;;22.85;8.48;;;9.80;97.60;;;;;;4953448;28;20098;-73
2021/04/30 05:16:45;;;;;;;19.95;7.60;;;9.80;97.50;;;;;;4955031;28;20046;-75
2021/04/30 05:19:11;;;;;;;20.08;7.82;;;9.70;97.60;;;;;;4955076;28;20378;-74
2021/04/30 05:21:39;;;;;;;20.20;8.70;;;9.80;97.60;;;;;;4953500;29;20089;-74
2021/04/30 05:24:06;;;;;;;19.05;7.82;;;9.80;97.60;;;;;;4952934;29;20110;-74
2021/04/30 05:26:32;;;;;;;14.40;6.97;;;9.80;97.60;;;;;;4953326;28;20168;-74
2021/04/30 05:28:58;;;;;;;17.02;6.70;;;9.80;97.60;;;;;;4954506;28;20337;-75
2021/04/30 05:31:24;;;;;;;16.88;6.78;;;9.90;97.50;;;;;;4953640;28;20412;-75
2021/04/30 05:33:50;;;;;;;14.65;6.25;;;9.90;97.50;;;;;;4953993;28;20026;-74
2021/04/30 05:36:17;;;;;;;22.23;8.27;;;9.90;97.50;;;;;;4953290;28;20028;-75
2021/04/30 05:38:42;;;;;;;20.60;8.35;;;9.90;97.50;;;;;;4954062;28;20027;-75
2021/04/30 05:41:08;;;;;;;15.38;6.20;;;9.90;97.50;;;;;;4952600;29;20482;-74
2021/04/30 05:43:33;;;;;;;16.33;6.32;;;9.90;97.50;;;;;;4953286;28;20030;-75
2021/04/30 05:45:59;;;;;;;23.15;7.78;;;9.90;97.40;;;;;;4953565;29;20038;-74
2021/04/30 05:48:25;;;;;;;20.50;7.43;;;9.90;97.50;;;;;;4951792;29;20426;-74
2021/04/30 05:50:51;;;;;;;25.02;9.32;;;9.90;97.40;;;;;;4953859;29;20044;-74
2021/04/30 05:53:16;;;;;;;19.77;7.72;;;9.90;97.40;;;;;;4951961;28;20399;-73
2021/04/30 05:55:42;;;;;;;18.42;7.57;;;9.90;97.50;;;;;;4953828;29;20074;-74
2021/04/30 05:58:08;;;;;;;18.55;7.47;;;9.90;97.50;;;;;;4953685;28;20524;-74
2021/04/30 06:00:33;;;;;;;16.35;6.47;;;9.90;97.50;;;;;;4951831;29;20016;-74
2021/04/30 06:02:59;;;;;;;23.85;7.63;;;10.00;97.50;;;;;;4953777;29;20392;-74
2021/04/30 06:05:25;;;;;;;18.77;6.60;;;10.00;97.50;;;;;;4952798;28;20042;-74
2021/04/30 06:07:50;;;;;;;17.58;8.32;;;10.10;97.50;;;;;;4953599;29;20047;-75
2021/04/30 06:10:16;;;;;;;18.38;8.48;;;10.10;97.50;;;;;;4953624;28;20027;-74
2021/04/30 06:12:42;;;;;;;18.23;7.70;;;10.10;97.40;;;;;;4953407;28;20077;-74
2021/04/30 06:15:08;;;;;;;25.33;7.80;;;10.10;97.40;;;;;;4952421;29;20028;-74
2021/04/30 06:17:34;;;;;;;20.00;8.45;;;10.20;97.40;;;;;;4952534;28;20492;-74
2021/04/30 06:19:59;;;;;;;19.60;8.65;;;10.20;97.30;;;;;;4953258;28;20059;-75
2021/04/30 06:22:25;;;;;;;27.55;10.50;;;10.20;97.40;;;;;;4951622;29;20094;-73
2021/04/30 06:24:51;;;;;;;23.60;9.45;;;10.20;97.40;;;;;;4953536;28;20027;-75
2021/04/30 06:27:17;;;;;;;20.40;8.30;;;10.20;97.30;;;;;;4954571;28;20031;-75
2021/04/30 06:29:43;;;;;;;21.52;8.88;;;10.20;97.20;;;;;;4956708;28;20035;-74
2021/04/30 06:32:08;;;;;;;15.15;7.90;;;10.20;97.30;;;;;;4957194;28;20047;-74
2021/04/30 06:34:34;;;;;;;17.58;7.68;;;10.20;97.30;;;;;;4955270;29;20055;-74
2021/04/30 06:37:00;;;;;;;24.10;9.40;;;10.20;97.30;;;;;;4956827;28;20110;-75
2021/04/30 06:39:25;;;;;;;17.73;7.97;;;10.20;97.30;;;;;;4956180;29;20070;-74
2021/04/30 06:41:51;;;;;;;20.83;7.80;;;10.20;97.30;;;;;;4956993;29;20031;-75
2021/04/30 06:44:17;;;;;;;25.63;7.63;;;10.20;97.30;;;;;;4957159;28;20522;-74
2021/04/30 06:46:43;;;;;;;22.35;7.97;;;10.20;97.30;;;;;;4956447;28;20023;-75
2021/04/30 06:49:09;;;;;;;20.95;8.77;;;10.20;97.20;;;;;;4956892;28;20019;-74
2021/04/30 06:51:35;;;;;;;20.85;8.10;;;10.20;97.30;;;;;;4956176;28;20027;-74
2021/04/30 06:54:01;;;;;;;18.92;8.23;;;10.30;97.20;;;;;;4956642;28;20059;-74
2021/04/30 06:56:30;;;;;;;21.10;8.00;;;10.30;97.20;;;;;;4955890;28;20035;-74
2021/04/30 06:58:56;;;;;;;20.60;7.53;;;10.30;97.20;;;;;;4955269;29;20034;-75
2021/04/30 07:01:22;;;;;;;16.02;7.40;;;10.40;97.20;;;;;;4955792;29;20445;-75
2021/04/30 07:03:47;;;;;;;15.57;7.30;;;10.40;97.20;;;;;;4956901;29;20115;-74
2021/04/30 07:06:19;;;;;;;19.17;7.72;;;10.40;97.10;;;;;;4956695;28;20023;-75
2021/04/30 07:08:44;;;;;;;24.05;9.00;;;10.50;97.10;;;;;;4970449;28;20051;-74
2021/04/30 07:11:10;;;;;;;23.60;8.88;;;10.50;97.10;;;;;;4957198;29;20050;-74
2021/04/30 07:13:36;;;;;;;16.38;7.65;;;10.60;97.10;;;;;;4955851;29;20098;-74
2021/04/30 07:16:06;;;;;;;21.23;9.65;;;10.60;97.10;;;;;;4956353;28;20122;-74
2021/04/30 07:18:32;;;;;;;20.85;9.70;;;10.70;97.00;;;;;;4954413;28;20027;-73
2021/04/30 07:20:58;;;;;;;26.52;10.05;;;10.70;97.00;;;;;;4956391;29;20020;-74
2021/04/30 07:23:24;;;;;;;21.23;9.75;;;10.70;97.00;;;;;;4955917;29;20482;-74
2021/04/30 07:25:50;;;;;;;17.90;8.02;;;10.70;96.90;;;;;;4956557;28;20114;-74
2021/04/30 07:28:16;;;;;;;27.10;10.20;;;10.80;96.90;;;;;;4956278;28;20494;-75
2021/04/30 07:30:41;;;;;;;27.77;11.00;;;10.90;96.80;;;;;;4955619;29;20023;-74
2021/04/30 07:33:07;;;;;;;28.33;10.65;;;10.90;96.80;;;;;;4956250;29;20067;-76
2021/04/30 07:35:33;;;;;;;28.70;10.73;;;10.90;96.70;;;;;;4955738;29;20079;-74
2021/04/30 07:37:58;;;;;;;21.98;9.70;;;11.00;96.70;;;;;;4955338;28;20023;-74
2021/04/30 07:40:25;;;;;;;19.48;8.27;;;11.00;96.70;;;;;;4954423;28;20031;-74
2021/04/30 07:42:50;;;;;;;24.35;10.20;;;11.00;96.60;;;;;;4956283;28;20110;-74
2021/04/30 07:45:35;;;;;;;21.58;10.02;;;11.10;96.60;;;;;;4956257;28;20174;-74
2021/04/30 07:48:01;;;;;;;15.85;7.63;;;11.10;96.50;;;;;;4956115;29;20070;-74
2021/04/30 07:50:26;;;;;;;18.98;9.05;;;11.20;96.60;;;;;;4955418;29;20051;-74
2021/04/30 07:52:52;;;;;;;22.35;10.75;;;11.20;96.40;;;;;;4955561;29;20038;-75
2021/04/30 07:55:18;;;;;;;26.63;12.70;;;11.10;96.40;;;;;;4955476;28;20042;-74
2021/04/30 07:57:44;;;;;;;34.17;10.85;;;11.10;96.50;;;;;;4955261;28;20023;-73
2021/04/30 08:00:10;;;;;;;25.60;11.30;;;11.10;96.50;;;;;;4955698;28;20090;-74
2021/04/30 08:02:36;;;;;;;25.35;11.30;;;11.10;96.40;;;;;;4955017;29;20388;-74
2021/04/30 08:05:02;;;;;;;24.63;11.15;;;11.20;96.40;;;;;;4955480;29;20028;-74
2021/04/30 08:07:28;;;;;;;23.30;11.13;;;11.20;96.30;;;;;;4954556;28;20054;-76
2021/04/30 08:09:55;;;;;;;25.67;11.35;;;11.20;96.20;;;;;;4955567;29;20498;-75
2021/04/30 08:12:21;;;;;;;26.17;9.35;;;11.20;96.30;;;;;;4955410;28;20364;-75
2021/04/30 08:14:46;;;;;;;27.95;10.13;;;11.20;96.20;;;;;;4954880;28;20081;-74
2021/04/30 08:17:12;;;;;;;22.08;10.05;;;11.30;96.20;;;;;;4955490;29;20027;-74
2021/04/30 08:19:38;;;;;;;20.50;8.13;;;11.30;96.10;;;;;;4954596;29;20433;-75
2021/04/30 08:22:04;;;;;;;24.83;9.70;;;11.30;96.10;;;;;;4955741;29;20110;-74
2021/04/30 08:24:29;;;;;;;27.13;10.48;;;11.30;96.10;;;;;;4953421;28;20020;-74
2021/04/30 08:26:55;;;;;;;27.60;10.07;;;11.30;96.10;;;;;;4953758;28;20029;-74
2021/04/30 08:29:21;;;;;;;22.63;9.35;;;11.30;96.20;;;;;;4955244;29;20333;-75
2021/04/30 08:31:47;;;;;;;24.40;10.68;;;11.30;96.10;;;;;;4954698;28;20023;-75
2021/04/30 08:34:13;;;;;;;17.73;8.75;;;11.20;96.20;;;;;;4955219;28;20050;-74
2021/04/30 08:36:38;;;;;;;21.25;9.65;;;11.20;96.20;;;;;;4954111;28;20043;-75
2021/04/30 08:39:05;;;;;;;26.35;10.75;;;11.20;96.10;;;;;;4955016;28;20099;-74
2021/04/30 08:41:35;;;;;;;21.88;10.18;;;11.20;96.10;;;;;;4954512;28;20092;-74
2021/04/30 08:44:02;;;;;;;19.95;8.52;;;11.20;96.10;;;;;;4955009;29;20468;-73
2021/04/30 08:46:28;;;;;;;17.90;8.07;;;11.20;96.10;;;;;;4954820;28;20460;-75
2021/04/30 08:48:53;;;;;;;21.58;9.07;;;11.20;96.00;;;;;;4954545;28;20028;-74
2021/04/30 08:51:19;;;;;;;21.00;9.43;;;11.20;96.00;;;;;;4954764;28;20031;-74
2021/04/30 08:53:45;;;;;;;24.70;9.25;;;11.20;96.00;;;;;;4954169;29;20035;-75
2021/04/30 08:56:11;;;;;;;18.70;8.02;;;11.20;96.00;;;;;;4955133;29;20043;-74
2021/04/30 08:58:40;;;;;;;20.88;9.57;;;11.20;95.90;;;;;;4953901;28;20019;-74
2021/04/30 09:01:06;;;;;;;26.30;10.75;;;11.30;95.90;;;;;;4954242;28;20023;-75
2021/04/30 09:03:35;;;;;;;19.83;9.02;;;11.40;95.90;;;;;;4953454;29;20134;-74
2021/04/30 09:06:01;;;;;;;19.83;9.43;;;11.50;95.80;;;;;;4954659;29;20027;-75
2021/04/30 09:08:27;;;;;;;27.10;12.05;;;11.50;95.70;;;;;;4954016;28;20052;-74
2021/04/30 09:10:56;;;;;;;24.73;10.23;;;11.60;95.60;;;;;;4953513;28;20106;-74
2021/04/30 09:13:24;;;;;;;24.70;10.88;;;11.60;95.60;;;;;;4954274;28;20038;-75
2021/04/30 09:16:05;;;;;;;25.80;9.93;;;11.70;95.50;;;;;;4953613;28;20118;-74
2021/04/30 09:18:34;;;;;;;28.25;10.02;;;11.70;95.40;;;;;;4952962;29;20424;-76
2021/04/30 09:21:14;;;;;;;19.08;8.63;;;11.70;95.40;;;;;;4952837;29;20054;-75
2021/04/30 09:23:42;;;;;;;18.23;8.27;;;11.80;95.30;;;;;;4936849;29;20026;-75
2021/04/30 09:26:27;;;;;;;23.67;10.40;;;11.80;95.30;;;;;;4953700;28;20027;-75
2021/04/30 09:29:13;;;;;;;27.02;10.95;;;11.90;95.20;;;;;;4953394;28;20038;-75
2021/04/30 09:31:44;;;;;;;32.55;13.27;;;12.00;95.20;;;;;;4952943;28;20043;-74
2021/04/30 09:34:31;;;;;;;26.13;10.00;;;12.00;95.20;;;;;;4952244;29;20035;-74
2021/04/30 09:37:00;;;;;;;27.42;10.02;;;12.10;95.00;;;;;;4952491;29;20098;-74
2021/04/30 09:39:27;;;;;;;30.25;11.77;;;12.10;95.00;;;;;;4953789;28;20034;-75
2021/04/30 09:42:17;;;;;;;22.58;9.75;;;12.20;94.90;;;;;;4953268;28;20550;-75
2021/04/30 09:44:45;;;;;;;21.48;9.07;;;12.30;94.70;;;;;;4953228;28;20050;-74
2021/04/30 09:47:11;;;;;;;20.00;9.68;;;12.30;94.80;;;;;;4952670;29;20027;-75
2021/04/30 09:49:38;;;;;;;23.70;9.23;;;12.30;94.80;;;;;;4952985;29;20027;-74
2021/04/30 09:52:04;;;;;;;30.50;11.60;;;12.30;94.70;;;;;;4953472;29;20028;-75
2021/04/30 09:54:31;;;;;;;27.58;11.77;;;12.20;94.70;;;;;;4953440;28;20110;-75
2021/04/30 09:57:10;;;;;;;27.40;11.98;;;12.10;94.90;;;;;;4952801;29;20428;-75
2021/04/30 09:59:38;;;;;;;28.70;10.25;;;12.00;95.00;;;;;;4953395;29;20420;-75
2021/04/30 10:02:07;;;;;;;29.15;11.95;;;11.90;95.10;;;;;;4957874;28;20106;-75
2021/04/30 10:04:34;;;;;;;27.40;11.85;;;11.80;95.20;;;;;;4960256;28;20031;-75
2021/04/30 10:07:01;;;;;;;27.85;10.98;;;11.60;95.20;;;;;;4975191;28;20436;-75
2021/04/30 10:09:29;;;;;;;27.45;10.88;;;11.60;95.40;;;;;;4959849;28;20490;-75
2021/04/30 10:11:55;;;;;;;23.55;9.80;;;11.60;95.50;;;;;;4958031;28;20320;-75
2021/04/30 10:14:23;;;;;;;29.85;11.38;;;11.60;95.50;;;;;;4960308;29;20023;-75
2021/04/30 10:16:49;;;;;;;19.42;9.77;;;11.60;95.40;;;;;;4958423;29;20421;-75
2021/04/30 10:19:15;;;;;;;22.08;9.77;;;11.70;95.40;;;;;;4959325;28;20042;-75
2021/04/30 10:21:43;;;;;;;22.35;9.38;;;11.70;95.30;;;;;;4958281;28;20484;-75
2021/04/30 10:24:14;;;;;;;27.70;10.90;;;11.80;95.30;;;;;;4960382;29;20027;-75
2021/04/30 10:26:40;;;;;;;26.67;11.95;;;11.80;95.10;;;;;;4958378;29;20464;-75
2021/04/30 10:29:10;;;;;;;24.65;10.32;;;11.80;95.10;;;;;;4959964;28;20020;-74
2021/04/30 10:31:42;;;;;;;22.48;9.38;;;11.80;95.10;;;;;;4959787;29;20019;-75
2021/04/30 10:34:10;;;;;;;28.52;12.27;;;11.80;95.10;;;;;;4960226;29;20114;-74
2021/04/30 10:36:47;;;;;;;28.50;12.70;;;11.70;94.90;;;;;;4959721;28;20035;-76
2021/04/30 10:39:31;;;;;;;27.05;12.32;;;11.60;95.00;;;;;;4958881;28;20027;-75
2021/04/30 10:41:56;;;;;;;31.75;13.27;;;11.50;95.10;;;;;;4959444;28;20485;-74
2021/04/30 10:44:26;;;;;;;31.73;11.57;;;11.40;95.20;;;;;;4959779;29;20361;-75
2021/04/30 10:47:07;;;;;;;25.08;11.05;;;11.30;95.20;;;;;;4958041;28;20079;-74
2021/04/30 10:49:33;;;;;;;21.33;9.70;;;11.20;95.30;;;;;;4958460;28;20041;-74
2021/04/30 10:52:08;;;;;;;19.10;8.35;;;11.00;95.50;;;;;;4959519;28;20031;-74
2021/04/30 10:54:38;;;;;;;21.77;8.73;;;10.90;95.70;;;;;;4959667;28;20096;-73
2021/04/30 10:57:10;;;;;;;19.30;8.32;;;10.80;95.90;;;;;;4959859;28;20031;-74
2021/04/30 10:59:36;;;;;;;24.67;10.23;;;10.80;96.00;;;;;;4959659;28;20066;-74
2021/04/30 11:02:44;;;;;;;19.52;8.63;;;10.70;96.10;;;;;;4957925;29;20062;-74
2021/04/30 11:05:13;;;;;;;17.27;8.18;;;10.70;96.10;;;;;;4958633;28;20027;-74
2021/04/30 11:07:45;;;;;;;23.90;9.23;;;10.60;96.20;;;;;;4958651;29;20024;-74
2021/04/30 11:10:20;;;;;;;23.88;9.32;;;10.70;96.30;;;;;;4957784;28;20046;-75
2021/04/30 11:12:57;;;;;;;20.60;8.88;;;10.70;96.10;;;;;;4955296;28;20171;-74
2021/04/30 11:15:24;;;;;;;22.77;9.48;;;10.80;96.10;;;;;;4955150;29;20165;-74
2021/04/30 11:17:53;;;;;;;22.30;9.63;;;10.90;95.90;;;;;;4955617;29;20094;-74
2021/04/30 11:20:20;;;;;;;26.38;10.85;;;11.00;95.90;;;;;;4956652;28;20015;-73
2021/04/30 11:23:15;;;;;;;26.50;11.75;;;11.10;95.70;;;;;;4954406;28;20023;-75
2021/04/30 11:26:03;;;;;;;27.65;11.50;;;11.20;95.60;;;;;;4956278;28;20121;-74
2021/04/30 11:28:32;;;;;;;33.85;11.52;;;11.20;95.50;;;;;;4955367;29;20034;-74
2021/04/30 11:31:07;;;;;;;37.13;12.65;;;11.20;95.60;;;;;;4956465;28;20029;-73
2021/04/30 11:33:39;;;;;;;27.35;11.85;;;11.30;95.60;;;;;;4956966;28;20023;-74
2021/04/30 11:36:07;;;;;;;36.25;14.43;;;11.30;95.60;;;;;;4956029;28;20039;-74
2021/04/30 11:38:53;;;;;;;34.20;13.02;;;11.30;95.60;;;;;;4956439;28;20100;-74
2021/04/30 11:41:19;;;;;;;44.25;15.20;;;11.40;95.60;;;;;;4955962;28;20123;-75
2021/04/30 11:43:50;;;;;;;36.97;13.52;;;11.40;95.50;;;;;;4955402;28;20016;-74
2021/04/30 11:46:16;;;;;;;32.67;13.60;;;11.50;95.60;;;;;;4956373;28;20062;-74
2021/04/30 11:48:43;;;;;;;32.88;13.20;;;11.60;95.50;;;;;;4955665;29;20019;-74
2021/04/30 11:51:10;;;;;;;43.58;15.68;;;11.60;95.40;;;;;;4955903;29;20461;-73
2021/04/30 11:53:42;;;;;;;35.17;13.45;;;11.60;95.40;;;;;;4955816;28;20019;-74
2021/04/30 11:56:12;;;;;;;33.08;14.05;;;11.70;95.50;;;;;;4955875;28;20035;-74
2021/04/30 11:58:57;;;;;;;37.15;13.93;;;11.70;95.60;;;;;;4955618;28;20023;-74
2021/04/30 12:01:25;;;;;;;26.98;11.50;;;11.80;95.50;;;;;;4955875;29;20031;-74
2021/04/30 12:03:54;;;;;;;37.38;13.05;;;11.80;95.60;;;;;;4955273;28;20106;-74
2021/04/30 12:06:23;;;;;;;35.20;12.63;;;11.80;95.70;;;;;;4955696;28;20031;-74
2021/04/30 12:08:53;;;;;;;32.78;12.65;;;11.90;95.70;;;;;;4954780;28;20507;-74
2021/04/30 12:11:30;;;;;;;23.70;11.30;;;12.00;95.70;;;;;;4955442;28;20042;-75
2021/04/30 12:13:58;;;;;;;31.60;12.35;;;12.00;95.60;;;;;;4949467;29;20036;-80
2021/04/30 12:16:24;;;;;;;32.78;13.75;;;12.00;95.70;;;;;;4947775;29;20121;-76
2021/04/30 12:18:53;;;;;;;28.60;12.60;;;12.00;95.80;;;;;;4955370;28;20457;-76
2021/04/30 12:21:33;;;;;;;42.90;13.63;;;12.10;95.80;;;;;;4948548;28;20131;-76
2021/04/30 12:24:00;;;;;;;30.98;12.98;;;12.10;95.70;;;;;;4935638;29;20020;-75
2021/04/30 12:26:34;;;;;;;40.53;14.85;;;12.30;95.80;;;;;;4944445;29;20055;-74
2021/04/30 12:29:05;;;;;;;40.53;14.93;;;12.60;95.70;;;;;;4952940;28;20391;-75
2021/04/30 12:31:31;;;;;;;43.55;16.02;;;12.80;95.40;;;;;;4954880;28;20027;-76
2021/04/30 12:33:56;;;;;;;35.13;15.07;;;13.10;95.20;;;;;;4954644;28;20028;-76
2021/04/30 12:36:25;;;;;;;38.92;14.57;;;13.40;95.00;;;;;;4955098;28;20063;-76
2021/04/30 12:38:54;;;;;;;50.55;16.73;;;13.60;94.80;;;;;;4954411;28;20102;-76
2021/04/30 12:41:28;;;;;;;35.47;13.88;;;13.90;94.50;;;;;;4954567;28;20028;-76